sensor_id;sensor_type;location;lat;lon;timestamp;P1;durP1;ratioP1;P2;durP2;ratioP2
75718;SDS011;64340;48.534;-3.036;2023-04-25T00:02:20;2.25;;;0.90;;
75718;SDS011;64340;48.534;-3.036;2023-04-25T00:04:47;3.35;;;1.10;;
75718;SDS011;64340;48.534;-3.036;2023-04-25T00:07:14;2.30;;;1.00;;
75718;SDS011;64340;48.534;-3.036;2023-04-25T00:09:41;1.70;;;0.93;;
75718;SDS011;64340;48.534;-3.036;2023-04-25T00:12:07;1.95;;;0.98;;
75718;SDS011;64340;48.534;-3.036;2023-04-25T00:14:33;3.13;;;1.17;;
75718;SDS011;64340;48.534;-3.036;2023-04-25T00:17:00;2.53;;;0.90;;
75718;SDS011;64340;48.534;-3.036;2023-04-25T00:19:27;3.15;;;1.00;;
75718;SDS011;64340;48.534;-3.036;2023-04-25T00:21:54;3.78;;;1.20;;
75718;SDS011;64340;48.534;-3.036;2023-04-25T00:24:20;2.67;;;0.98;;
75718;SDS011;64340;48.534;-3.036;2023-04-25T00:26:46;4.35;;;1.30;;
75718;SDS011;64340;48.534;-3.036;2023-04-25T00:29:12;3.45;;;1.13;;
75718;SDS011;64340;48.534;-3.036;2023-04-25T00:31:38;2.85;;;1.02;;
75718;SDS011;64340;48.534;-3.036;2023-04-25T00:34:04;3.03;;;1.10;;
75718;SDS011;64340;48.534;-3.036;2023-04-25T00:36:30;3.75;;;1.33;;
75718;SDS011;64340;48.534;-3.036;2023-04-25T00:38:56;3.70;;;1.38;;
75718;SDS011;64340;48.534;-3.036;2023-04-25T00:41:22;4.03;;;1.25;;
75718;SDS011;64340;48.534;-3.036;2023-04-25T00:43:50;4.70;;;1.20;;
75718;SDS011;64340;48.534;-3.036;2023-04-25T00:46:17;2.42;;;1.02;;
75718;SDS011;64340;48.534;-3.036;2023-04-25T00:48:42;2.75;;;1.10;;
75718;SDS011;64340;48.534;-3.036;2023-04-25T00:51:09;2.63;;;1.13;;
75718;SDS011;64340;48.534;-3.036;2023-04-25T00:53:40;2.15;;;0.98;;
75718;SDS011;64340;48.534;-3.036;2023-04-25T00:56:06;3.30;;;0.98;;
75718;SDS011;64340;48.534;-3.036;2023-04-25T00:58:32;2.53;;;0.90;;
75718;SDS011;64340;48.534;-3.036;2023-04-25T01:00:59;3.00;;;1.05;;
75718;SDS011;64340;48.534;-3.036;2023-04-25T01:03:25;2.72;;;1.10;;
75718;SDS011;64340;48.534;-3.036;2023-04-25T01:05:53;3.28;;;1.20;;
75718;SDS011;64340;48.534;-3.036;2023-04-25T01:08:21;2.88;;;1.08;;
75718;SDS011;64340;48.534;-3.036;2023-04-25T01:10:52;2.92;;;1.00;;
75718;SDS011;64340;48.534;-3.036;2023-04-25T01:13:18;2.50;;;1.10;;
75718;SDS011;64340;48.534;-3.036;2023-04-25T01:15:44;2.13;;;1.17;;
75718;SDS011;64340;48.534;-3.036;2023-04-25T01:18:10;1.75;;;1.00;;
75718;SDS011;64340;48.534;-3.036;2023-04-25T01:20:37;2.72;;;1.05;;
75718;SDS011;64340;48.534;-3.036;2023-04-25T01:23:05;3.67;;;1.23;;
75718;SDS011;64340;48.534;-3.036;2023-04-25T01:25:30;2.50;;;1.00;;
75718;SDS011;64340;48.534;-3.036;2023-04-25T01:27:57;3.00;;;1.10;;
75718;SDS011;64340;48.534;-3.036;2023-04-25T01:30:24;2.83;;;0.93;;
75718;SDS011;64340;48.534;-3.036;2023-04-25T01:32:52;3.05;;;0.90;;
75718;SDS011;64340;48.534;-3.036;2023-04-25T01:35:19;2.35;;;0.98;;
75718;SDS011;64340;48.534;-3.036;2023-04-25T01:37:45;3.47;;;1.25;;
75718;SDS011;64340;48.534;-3.036;2023-04-25T01:40:11;3.55;;;1.05;;
75718;SDS011;64340;48.534;-3.036;2023-04-25T01:42:38;1.67;;;0.88;;
75718;SDS011;64340;48.534;-3.036;2023-04-25T01:45:05;2.30;;;1.10;;
75718;SDS011;64340;48.534;-3.036;2023-04-25T01:47:32;3.40;;;1.10;;
75718;SDS011;64340;48.534;-3.036;2023-04-25T01:50:00;2.78;;;1.20;;
75718;SDS011;64340;48.534;-3.036;2023-04-25T01:52:29;4.03;;;1.30;;
75718;SDS011;64340;48.534;-3.036;2023-04-25T01:54:55;4.07;;;1.00;;
75718;SDS011;64340;48.534;-3.036;2023-04-25T01:57:22;3.47;;;1.23;;
75718;SDS011;64340;48.534;-3.036;2023-04-25T01:59:48;3.95;;;1.02;;
75718;SDS011;64340;48.534;-3.036;2023-04-25T02:02:14;3.50;;;1.05;;
75718;SDS011;64340;48.534;-3.036;2023-04-25T02:04:40;2.55;;;1.10;;
75718;SDS011;64340;48.534;-3.036;2023-04-25T02:07:06;3.10;;;1.23;;
75718;SDS011;64340;48.534;-3.036;2023-04-25T02:09:32;2.05;;;0.88;;
75718;SDS011;64340;48.534;-3.036;2023-04-25T02:11:58;2.95;;;1.25;;
75718;SDS011;64340;48.534;-3.036;2023-04-25T02:14:23;2.88;;;1.00;;
75718;SDS011;64340;48.534;-3.036;2023-04-25T02:16:49;2.72;;;1.00;;
75718;SDS011;64340;48.534;-3.036;2023-04-25T02:19:16;1.55;;;0.80;;
75718;SDS011;64340;48.534;-3.036;2023-04-25T02:21:42;2.65;;;0.90;;
75718;SDS011;64340;48.534;-3.036;2023-04-25T02:24:07;2.88;;;1.10;;
75718;SDS011;64340;48.534;-3.036;2023-04-25T02:26:33;3.05;;;1.02;;
75718;SDS011;64340;48.534;-3.036;2023-04-25T02:28:59;3.22;;;1.17;;
75718;SDS011;64340;48.534;-3.036;2023-04-25T02:31:26;2.53;;;1.10;;
75718;SDS011;64340;48.534;-3.036;2023-04-25T02:33:51;2.72;;;1.08;;
75718;SDS011;64340;48.534;-3.036;2023-04-25T02:36:17;2.63;;;1.20;;
75718;SDS011;64340;48.534;-3.036;2023-04-25T02:38:43;1.65;;;1.00;;
75718;SDS011;64340;48.534;-3.036;2023-04-25T02:41:09;1.98;;;0.80;;
75718;SDS011;64340;48.534;-3.036;2023-04-25T02:43:34;2.10;;;1.10;;
75718;SDS011;64340;48.534;-3.036;2023-04-25T02:46:00;2.88;;;1.00;;
75718;SDS011;64340;48.534;-3.036;2023-04-25T02:48:26;3.95;;;1.10;;
75718;SDS011;64340;48.534;-3.036;2023-04-25T02:50:52;3.00;;;0.93;;
75718;SDS011;64340;48.534;-3.036;2023-04-25T02:53:17;2.40;;;1.02;;
75718;SDS011;64340;48.534;-3.036;2023-04-25T02:55:43;2.10;;;1.10;;
75718;SDS011;64340;48.534;-3.036;2023-04-25T02:58:09;2.03;;;0.88;;
75718;SDS011;64340;48.534;-3.036;2023-04-25T03:00:35;2.00;;;0.95;;
75718;SDS011;64340;48.534;-3.036;2023-04-25T03:03:01;2.25;;;1.10;;
75718;SDS011;64340;48.534;-3.036;2023-04-25T03:05:26;3.13;;;1.00;;
75718;SDS011;64340;48.534;-3.036;2023-04-25T03:07:52;2.55;;;1.20;;
75718;SDS011;64340;48.534;-3.036;2023-04-25T03:10:18;2.20;;;1.17;;
75718;SDS011;64340;48.534;-3.036;2023-04-25T03:12:43;3.05;;;1.02;;
75718;SDS011;64340;48.534;-3.036;2023-04-25T03:15:09;2.58;;;1.00;;
75718;SDS011;64340;48.534;-3.036;2023-04-25T03:17:35;1.85;;;0.90;;
75718;SDS011;64340;48.534;-3.036;2023-04-25T03:20:01;4.03;;;0.98;;
75718;SDS011;64340;48.534;-3.036;2023-04-25T03:22:30;2.58;;;0.90;;
75718;SDS011;64340;48.534;-3.036;2023-04-25T03:24:56;3.63;;;1.13;;
75718;SDS011;64340;48.534;-3.036;2023-04-25T03:27:21;2.08;;;1.05;;
75718;SDS011;64340;48.534;-3.036;2023-04-25T03:29:47;3.42;;;1.25;;
75718;SDS011;64340;48.534;-3.036;2023-04-25T03:32:13;1.95;;;0.95;;
75718;SDS011;64340;48.534;-3.036;2023-04-25T03:34:39;1.92;;;0.80;;
75718;SDS011;64340;48.534;-3.036;2023-04-25T03:37:05;2.80;;;1.10;;
75718;SDS011;64340;48.534;-3.036;2023-04-25T03:39:30;2.65;;;1.13;;
75718;SDS011;64340;48.534;-3.036;2023-04-25T03:41:56;2.00;;;1.13;;
75718;SDS011;64340;48.534;-3.036;2023-04-25T03:44:22;2.80;;;1.10;;
75718;SDS011;64340;48.534;-3.036;2023-04-25T03:46:49;2.95;;;1.02;;
75718;SDS011;64340;48.534;-3.036;2023-04-25T03:49:15;2.15;;;1.05;;
75718;SDS011;64340;48.534;-3.036;2023-04-25T03:51:41;3.63;;;0.90;;
75718;SDS011;64340;48.534;-3.036;2023-04-25T03:54:07;1.90;;;0.80;;
75718;SDS011;64340;48.534;-3.036;2023-04-25T03:56:33;2.72;;;1.00;;
75718;SDS011;64340;48.534;-3.036;2023-04-25T03:58:58;3.38;;;1.20;;
75718;SDS011;64340;48.534;-3.036;2023-04-25T04:01:24;2.60;;;1.05;;
75718;SDS011;64340;48.534;-3.036;2023-04-25T04:03:50;2.43;;;1.13;;
75718;SDS011;64340;48.534;-3.036;2023-04-25T04:06:16;1.75;;;1.00;;
75718;SDS011;64340;48.534;-3.036;2023-04-25T04:08:42;2.47;;;0.90;;
75718;SDS011;64340;48.534;-3.036;2023-04-25T04:11:07;2.47;;;1.20;;
75718;SDS011;64340;48.534;-3.036;2023-04-25T04:13:33;2.47;;;1.35;;
75718;SDS011;64340;48.534;-3.036;2023-04-25T04:15:59;3.85;;;1.02;;
75718;SDS011;64340;48.534;-3.036;2023-04-25T04:18:25;2.40;;;1.20;;
75718;SDS011;64340;48.534;-3.036;2023-04-25T04:20:51;2.40;;;0.98;;
75718;SDS011;64340;48.534;-3.036;2023-04-25T04:23:16;2.10;;;1.00;;
75718;SDS011;64340;48.534;-3.036;2023-04-25T04:25:42;3.17;;;1.75;;
75718;SDS011;64340;48.534;-3.036;2023-04-25T04:28:08;3.20;;;1.13;;
75718;SDS011;64340;48.534;-3.036;2023-04-25T04:30:36;3.03;;;1.02;;
75718;SDS011;64340;48.534;-3.036;2023-04-25T04:33:02;3.40;;;0.82;;
75718;SDS011;64340;48.534;-3.036;2023-04-25T04:35:28;2.47;;;1.00;;
75718;SDS011;64340;48.534;-3.036;2023-04-25T04:37:54;2.40;;;1.08;;
75718;SDS011;64340;48.534;-3.036;2023-04-25T04:40:20;2.17;;;1.15;;
75718;SDS011;64340;48.534;-3.036;2023-04-25T04:42:47;2.35;;;1.05;;
75718;SDS011;64340;48.534;-3.036;2023-04-25T04:45:13;2.28;;;1.00;;
75718;SDS011;64340;48.534;-3.036;2023-04-25T04:47:39;3.45;;;1.30;;
75718;SDS011;64340;48.534;-3.036;2023-04-25T04:50:08;3.33;;;1.40;;
75718;SDS011;64340;48.534;-3.036;2023-04-25T04:52:35;3.55;;;1.10;;
75718;SDS011;64340;48.534;-3.036;2023-04-25T04:55:03;7.03;;;1.33;;
75718;SDS011;64340;48.534;-3.036;2023-04-25T04:57:30;5.32;;;1.20;;
75718;SDS011;64340;48.534;-3.036;2023-04-25T04:59:59;5.20;;;1.55;;
75718;SDS011;64340;48.534;-3.036;2023-04-25T05:02:25;3.13;;;1.25;;
75718;SDS011;64340;48.534;-3.036;2023-04-25T05:04:51;4.95;;;1.60;;
75718;SDS011;64340;48.534;-3.036;2023-04-25T05:07:18;4.70;;;1.30;;
75718;SDS011;64340;48.534;-3.036;2023-04-25T05:09:44;3.63;;;1.50;;
75718;SDS011;64340;48.534;-3.036;2023-04-25T05:12:10;3.95;;;1.55;;
75718;SDS011;64340;48.534;-3.036;2023-04-25T05:14:36;3.47;;;1.88;;
75718;SDS011;64340;48.534;-3.036;2023-04-25T05:17:03;4.45;;;1.30;;
75718;SDS011;64340;48.534;-3.036;2023-04-25T05:19:31;5.18;;;1.52;;
75718;SDS011;64340;48.534;-3.036;2023-04-25T05:21:58;7.85;;;1.88;;
75718;SDS011;64340;48.534;-3.036;2023-04-25T05:24:24;6.15;;;1.70;;
75718;SDS011;64340;48.534;-3.036;2023-04-25T05:26:50;6.60;;;1.73;;
75718;SDS011;64340;48.534;-3.036;2023-04-25T05:29:18;5.88;;;1.85;;
75718;SDS011;64340;48.534;-3.036;2023-04-25T05:31:45;5.88;;;1.92;;
75718;SDS011;64340;48.534;-3.036;2023-04-25T05:34:13;5.50;;;1.52;;
75718;SDS011;64340;48.534;-3.036;2023-04-25T05:36:39;5.20;;;1.90;;
75718;SDS011;64340;48.534;-3.036;2023-04-25T05:39:05;5.57;;;1.75;;
75718;SDS011;64340;48.534;-3.036;2023-04-25T05:41:34;6.15;;;2.00;;
75718;SDS011;64340;48.534;-3.036;2023-04-25T05:43:59;4.40;;;2.25;;
75718;SDS011;64340;48.534;-3.036;2023-04-25T05:46:25;5.72;;;1.83;;
75718;SDS011;64340;48.534;-3.036;2023-04-25T05:48:51;5.95;;;2.03;;
75718;SDS011;64340;48.534;-3.036;2023-04-25T05:51:17;7.05;;;2.22;;
75718;SDS011;64340;48.534;-3.036;2023-04-25T05:53:43;4.68;;;1.90;;
75718;SDS011;64340;48.534;-3.036;2023-04-25T05:56:09;4.47;;;1.98;;
75718;SDS011;64340;48.534;-3.036;2023-04-25T05:58:35;4.72;;;2.17;;
75718;SDS011;64340;48.534;-3.036;2023-04-25T06:01:01;6.45;;;2.28;;
75718;SDS011;64340;48.534;-3.036;2023-04-25T06:03:27;5.18;;;2.20;;
75718;SDS011;64340;48.534;-3.036;2023-04-25T06:05:53;4.75;;;1.83;;
75718;SDS011;64340;48.534;-3.036;2023-04-25T06:08:19;3.67;;;1.73;;
75718;SDS011;64340;48.534;-3.036;2023-04-25T06:10:45;4.78;;;2.10;;
75718;SDS011;64340;48.534;-3.036;2023-04-25T06:13:10;2.97;;;1.70;;
75718;SDS011;64340;48.534;-3.036;2023-04-25T06:15:36;3.90;;;2.08;;
75718;SDS011;64340;48.534;-3.036;2023-04-25T06:18:02;3.45;;;2.13;;
75718;SDS011;64340;48.534;-3.036;2023-04-25T06:20:28;4.85;;;2.35;;
75718;SDS011;64340;48.534;-3.036;2023-04-25T06:22:53;4.03;;;2.20;;
75718;SDS011;64340;48.534;-3.036;2023-04-25T06:25:19;5.85;;;2.17;;
75718;SDS011;64340;48.534;-3.036;2023-04-25T06:27:45;5.57;;;2.53;;
75718;SDS011;64340;48.534;-3.036;2023-04-25T06:30:11;5.85;;;2.65;;
75718;SDS011;64340;48.534;-3.036;2023-04-25T06:32:37;5.22;;;2.28;;
75718;SDS011;64340;48.534;-3.036;2023-04-25T06:35:04;5.40;;;2.38;;
75718;SDS011;64340;48.534;-3.036;2023-04-25T06:37:30;4.93;;;2.38;;
75718;SDS011;64340;48.534;-3.036;2023-04-25T06:39:56;4.65;;;2.30;;
75718;SDS011;64340;48.534;-3.036;2023-04-25T06:42:22;5.43;;;2.45;;
75718;SDS011;64340;48.534;-3.036;2023-04-25T06:44:47;6.40;;;2.60;;
75718;SDS011;64340;48.534;-3.036;2023-04-25T06:47:13;5.25;;;2.60;;
75718;SDS011;64340;48.534;-3.036;2023-04-25T06:49:39;3.92;;;2.35;;
75718;SDS011;64340;48.534;-3.036;2023-04-25T06:52:05;5.43;;;2.50;;
75718;SDS011;64340;48.534;-3.036;2023-04-25T06:54:32;5.45;;;2.50;;
75718;SDS011;64340;48.534;-3.036;2023-04-25T06:56:58;5.13;;;2.40;;
75718;SDS011;64340;48.534;-3.036;2023-04-25T06:59:25;4.53;;;2.63;;
75718;SDS011;64340;48.534;-3.036;2023-04-25T07:01:51;6.47;;;2.42;;
75718;SDS011;64340;48.534;-3.036;2023-04-25T07:04:17;5.05;;;2.60;;
75718;SDS011;64340;48.534;-3.036;2023-04-25T07:06:43;4.78;;;2.63;;
75718;SDS011;64340;48.534;-3.036;2023-04-25T07:09:09;6.03;;;2.97;;
75718;SDS011;64340;48.534;-3.036;2023-04-25T07:11:35;3.67;;;2.13;;
75718;SDS011;64340;48.534;-3.036;2023-04-25T07:14:02;7.25;;;2.72;;
75718;SDS011;64340;48.534;-3.036;2023-04-25T07:16:28;5.38;;;2.35;;
75718;SDS011;64340;48.534;-3.036;2023-04-25T07:18:54;4.88;;;2.30;;
75718;SDS011;64340;48.534;-3.036;2023-04-25T07:21:19;5.28;;;2.33;;
75718;SDS011;64340;48.534;-3.036;2023-04-25T07:23:45;4.57;;;2.53;;
75718;SDS011;64340;48.534;-3.036;2023-04-25T07:26:11;4.38;;;2.45;;
75718;SDS011;64340;48.534;-3.036;2023-04-25T07:28:37;5.50;;;2.60;;
75718;SDS011;64340;48.534;-3.036;2023-04-25T07:31:02;4.85;;;2.50;;
75718;SDS011;64340;48.534;-3.036;2023-04-25T07:33:28;5.57;;;2.70;;
75718;SDS011;64340;48.534;-3.036;2023-04-25T07:35:54;5.47;;;2.33;;
75718;SDS011;64340;48.534;-3.036;2023-04-25T07:38:21;5.85;;;2.25;;
75718;SDS011;64340;48.534;-3.036;2023-04-25T07:40:47;3.97;;;2.08;;
75718;SDS011;64340;48.534;-3.036;2023-04-25T07:43:13;3.92;;;2.30;;
75718;SDS011;64340;48.534;-3.036;2023-04-25T07:45:42;3.78;;;2.45;;
75718;SDS011;64340;48.534;-3.036;2023-04-25T07:48:08;5.38;;;2.28;;
75718;SDS011;64340;48.534;-3.036;2023-04-25T07:50:34;4.53;;;2.15;;
75718;SDS011;64340;48.534;-3.036;2023-04-25T07:53:00;7.65;;;2.50;;
75718;SDS011;64340;48.534;-3.036;2023-04-25T07:55:25;4.30;;;2.58;;
75718;SDS011;64340;48.534;-3.036;2023-04-25T07:57:51;5.10;;;2.58;;
75718;SDS011;64340;48.534;-3.036;2023-04-25T08:00:17;4.63;;;2.33;;
75718;SDS011;64340;48.534;-3.036;2023-04-25T08:02:43;5.10;;;2.60;;
75718;SDS011;64340;48.534;-3.036;2023-04-25T08:05:09;3.75;;;2.13;;
75718;SDS011;64340;48.534;-3.036;2023-04-25T08:07:39;5.95;;;2.83;;
75718;SDS011;64340;48.534;-3.036;2023-04-25T08:10:05;4.03;;;2.47;;
75718;SDS011;64340;48.534;-3.036;2023-04-25T08:12:32;4.40;;;2.33;;
75718;SDS011;64340;48.534;-3.036;2023-04-25T08:14:58;5.72;;;2.42;;
75718;SDS011;64340;48.534;-3.036;2023-04-25T08:17:24;5.63;;;2.33;;
75718;SDS011;64340;48.534;-3.036;2023-04-25T08:19:49;4.72;;;2.30;;
75718;SDS011;64340;48.534;-3.036;2023-04-25T08:22:15;3.78;;;1.85;;
75718;SDS011;64340;48.534;-3.036;2023-04-25T08:24:41;5.43;;;2.45;;
75718;SDS011;64340;48.534;-3.036;2023-04-25T08:27:07;7.05;;;2.55;;
75718;SDS011;64340;48.534;-3.036;2023-04-25T08:29:33;5.70;;;2.17;;
75718;SDS011;64340;48.534;-3.036;2023-04-25T08:31:59;4.15;;;2.25;;
75718;SDS011;64340;48.534;-3.036;2023-04-25T08:34:25;5.97;;;2.00;;
75718;SDS011;64340;48.534;-3.036;2023-04-25T08:36:51;5.88;;;2.20;;
75718;SDS011;64340;48.534;-3.036;2023-04-25T08:39:17;5.03;;;2.00;;
75718;SDS011;64340;48.534;-3.036;2023-04-25T08:41:43;4.97;;;1.92;;
75718;SDS011;64340;48.534;-3.036;2023-04-25T08:44:10;4.57;;;1.73;;
75718;SDS011;64340;48.534;-3.036;2023-04-25T08:46:39;5.55;;;1.98;;
75718;SDS011;64340;48.534;-3.036;2023-04-25T08:49:06;5.13;;;2.20;;
75718;SDS011;64340;48.534;-3.036;2023-04-25T08:51:34;4.78;;;1.98;;
75718;SDS011;64340;48.534;-3.036;2023-04-25T08:54:08;6.40;;;2.08;;
75718;SDS011;64340;48.534;-3.036;2023-04-25T08:56:38;7.85;;;2.30;;
75718;SDS011;64340;48.534;-3.036;2023-04-25T08:59:07;3.80;;;1.98;;
75718;SDS011;64340;48.534;-3.036;2023-04-25T09:01:36;5.80;;;1.83;;
75718;SDS011;64340;48.534;-3.036;2023-04-25T09:04:02;7.47;;;2.25;;
75718;SDS011;64340;48.534;-3.036;2023-04-25T09:06:28;5.90;;;1.90;;
75718;SDS011;64340;48.534;-3.036;2023-04-25T09:09:05;3.85;;;1.73;;
75718;SDS011;64340;48.534;-3.036;2023-04-25T09:11:33;4.47;;;1.77;;
75718;SDS011;64340;48.534;-3.036;2023-04-25T09:17:00;3.53;;;1.40;;
75718;SDS011;64340;48.534;-3.036;2023-04-25T09:19:30;3.97;;;1.70;;
75718;SDS011;64340;48.534;-3.036;2023-04-25T09:22:01;5.40;;;1.42;;
75718;SDS011;64340;48.534;-3.036;2023-04-25T09:24:32;2.90;;;1.60;;
75718;SDS011;64340;48.534;-3.036;2023-04-25T09:27:07;4.05;;;1.60;;
75718;SDS011;64340;48.534;-3.036;2023-04-25T09:29:38;5.45;;;1.70;;
75718;SDS011;64340;48.534;-3.036;2023-04-25T09:34:48;3.55;;;1.65;;
75718;SDS011;64340;48.534;-3.036;2023-04-25T09:37:22;3.65;;;1.55;;
75718;SDS011;64340;48.534;-3.036;2023-04-25T09:39:52;7.55;;;1.67;;
75718;SDS011;64340;48.534;-3.036;2023-04-25T09:42:21;5.00;;;1.70;;
75718;SDS011;64340;48.534;-3.036;2023-04-25T09:44:49;5.90;;;2.00;;
75718;SDS011;64340;48.534;-3.036;2023-04-25T09:47:17;6.40;;;2.00;;
75718;SDS011;64340;48.534;-3.036;2023-04-25T09:49:43;2.90;;;1.52;;
75718;SDS011;64340;48.534;-3.036;2023-04-25T09:52:13;5.20;;;1.75;;
75718;SDS011;64340;48.534;-3.036;2023-04-25T09:54:40;5.03;;;1.67;;
75718;SDS011;64340;48.534;-3.036;2023-04-25T09:57:09;3.33;;;1.77;;
75718;SDS011;64340;48.534;-3.036;2023-04-25T09:59:49;4.28;;;1.83;;
75718;SDS011;64340;48.534;-3.036;2023-04-25T10:02:21;5.10;;;1.52;;
75718;SDS011;64340;48.534;-3.036;2023-04-25T10:04:52;5.20;;;1.95;;
75718;SDS011;64340;48.534;-3.036;2023-04-25T10:07:20;6.65;;;2.10;;
75718;SDS011;64340;48.534;-3.036;2023-04-25T10:09:52;5.38;;;1.90;;
75718;SDS011;64340;48.534;-3.036;2023-04-25T10:12:24;4.38;;;1.75;;
75718;SDS011;64340;48.534;-3.036;2023-04-25T10:14:51;3.80;;;1.40;;
75718;SDS011;64340;48.534;-3.036;2023-04-25T10:17:17;4.53;;;1.45;;
75718;SDS011;64340;48.534;-3.036;2023-04-25T10:19:46;4.35;;;1.80;;
75718;SDS011;64340;48.534;-3.036;2023-04-25T10:22:32;4.28;;;1.63;;
75718;SDS011;64340;48.534;-3.036;2023-04-25T10:25:01;4.78;;;2.03;;
75718;SDS011;64340;48.534;-3.036;2023-04-25T10:38:08;5.65;;;1.65;;
75718;SDS011;64340;48.534;-3.036;2023-04-25T10:40:34;4.57;;;1.52;;
75718;SDS011;64340;48.534;-3.036;2023-04-25T10:45:56;4.95;;;1.50;;
75718;SDS011;64340;48.534;-3.036;2023-04-25T10:48:28;4.22;;;1.60;;
75718;SDS011;64340;48.534;-3.036;2023-04-25T10:51:11;3.25;;;1.40;;
75718;SDS011;64340;48.534;-3.036;2023-04-25T10:53:41;3.67;;;1.50;;
75718;SDS011;64340;48.534;-3.036;2023-04-25T10:56:12;2.72;;;1.10;;
75718;SDS011;64340;48.534;-3.036;2023-04-25T10:58:45;4.90;;;1.63;;
75718;SDS011;64340;48.534;-3.036;2023-04-25T11:01:14;3.10;;;1.58;;
75718;SDS011;64340;48.534;-3.036;2023-04-25T11:03:56;6.70;;;1.55;;
75718;SDS011;64340;48.534;-3.036;2023-04-25T11:06:26;5.43;;;1.77;;
75718;SDS011;64340;48.534;-3.036;2023-04-25T11:09:02;3.83;;;1.52;;
75718;SDS011;64340;48.534;-3.036;2023-04-25T11:11:36;4.20;;;1.48;;
75718;SDS011;64340;48.534;-3.036;2023-04-25T11:14:02;4.43;;;1.80;;
75718;SDS011;64340;48.534;-3.036;2023-04-25T11:16:27;5.45;;;1.98;;
75718;SDS011;64340;48.534;-3.036;2023-04-25T11:18:56;4.72;;;1.75;;
75718;SDS011;64340;48.534;-3.036;2023-04-25T11:21:23;3.95;;;1.63;;
75718;SDS011;64340;48.534;-3.036;2023-04-25T11:23:51;5.40;;;1.40;;
75718;SDS011;64340;48.534;-3.036;2023-04-25T11:26:18;6.38;;;2.13;;
75718;SDS011;64340;48.534;-3.036;2023-04-25T11:28:45;6.75;;;2.00;;
75718;SDS011;64340;48.534;-3.036;2023-04-25T11:31:12;4.78;;;2.28;;
75718;SDS011;64340;48.534;-3.036;2023-04-25T11:33:37;6.50;;;2.60;;
75718;SDS011;64340;48.534;-3.036;2023-04-25T11:36:05;13.30;;;8.93;;
75718;SDS011;64340;48.534;-3.036;2023-04-25T11:38:32;28.45;;;21.52;;
75718;SDS011;64340;48.534;-3.036;2023-04-25T11:40:57;31.40;;;22.73;;
75718;SDS011;64340;48.534;-3.036;2023-04-25T11:43:23;28.58;;;21.92;;
75718;SDS011;64340;48.534;-3.036;2023-04-25T11:45:50;32.45;;;21.10;;
75718;SDS011;64340;48.534;-3.036;2023-04-25T11:48:17;23.00;;;17.42;;
75718;SDS011;64340;48.534;-3.036;2023-04-25T11:50:44;21.08;;;15.20;;
75718;SDS011;64340;48.534;-3.036;2023-04-25T11:53:10;18.63;;;13.95;;
75718;SDS011;64340;48.534;-3.036;2023-04-25T11:55:37;18.00;;;11.73;;
75718;SDS011;64340;48.534;-3.036;2023-04-25T11:58:03;14.80;;;10.77;;
75718;SDS011;64340;48.534;-3.036;2023-04-25T12:00:33;16.02;;;11.15;;
75718;SDS011;64340;48.534;-3.036;2023-04-25T12:03:00;15.82;;;10.10;;
75718;SDS011;64340;48.534;-3.036;2023-04-25T12:05:28;12.40;;;7.63;;
75718;SDS011;64340;48.534;-3.036;2023-04-25T12:07:58;15.48;;;8.45;;
75718;SDS011;64340;48.534;-3.036;2023-04-25T12:10:39;12.95;;;6.78;;
75718;SDS011;64340;48.534;-3.036;2023-04-25T12:13:21;13.48;;;7.10;;
75718;SDS011;64340;48.534;-3.036;2023-04-25T12:15:49;9.60;;;6.80;;
75718;SDS011;64340;48.534;-3.036;2023-04-25T12:18:18;11.77;;;6.35;;
75718;SDS011;64340;48.534;-3.036;2023-04-25T12:20:46;12.02;;;6.32;;
75718;SDS011;64340;48.534;-3.036;2023-04-25T12:23:12;10.20;;;5.13;;
75718;SDS011;64340;48.534;-3.036;2023-04-25T12:25:41;10.57;;;5.68;;
75718;SDS011;64340;48.534;-3.036;2023-04-25T12:28:15;9.18;;;5.10;;
75718;SDS011;64340;48.534;-3.036;2023-04-25T12:31:00;8.55;;;5.20;;
75718;SDS011;64340;48.534;-3.036;2023-04-25T12:33:31;6.55;;;4.00;;
75718;SDS011;64340;48.534;-3.036;2023-04-25T12:36:01;6.72;;;3.90;;
75718;SDS011;64340;48.534;-3.036;2023-04-25T12:38:37;6.28;;;3.75;;
75718;SDS011;64340;48.534;-3.036;2023-04-25T12:41:04;5.75;;;3.78;;
75718;SDS011;64340;48.534;-3.036;2023-04-25T12:43:30;7.63;;;3.40;;
75718;SDS011;64340;48.534;-3.036;2023-04-25T12:45:56;6.35;;;3.42;;
75718;SDS011;64340;48.534;-3.036;2023-04-25T12:48:22;8.77;;;3.63;;
75718;SDS011;64340;48.534;-3.036;2023-04-25T12:50:49;6.25;;;3.42;;
75718;SDS011;64340;48.534;-3.036;2023-04-25T12:53:20;6.22;;;3.40;;
75718;SDS011;64340;48.534;-3.036;2023-04-25T12:55:47;5.28;;;3.38;;
75718;SDS011;64340;48.534;-3.036;2023-04-25T12:58:14;6.80;;;3.10;;
75718;SDS011;64340;48.534;-3.036;2023-04-25T13:00:40;6.43;;;3.38;;
75718;SDS011;64340;48.534;-3.036;2023-04-25T13:03:07;6.55;;;2.92;;
75718;SDS011;64340;48.534;-3.036;2023-04-25T13:05:34;5.50;;;2.47;;
75718;SDS011;64340;48.534;-3.036;2023-04-25T13:07:59;7.47;;;2.80;;
75718;SDS011;64340;48.534;-3.036;2023-04-25T13:10:25;6.93;;;2.80;;
75718;SDS011;64340;48.534;-3.036;2023-04-25T13:12:51;6.95;;;2.90;;
75718;SDS011;64340;48.534;-3.036;2023-04-25T13:15:16;5.18;;;3.15;;
75718;SDS011;64340;48.534;-3.036;2023-04-25T13:17:42;6.40;;;2.70;;
75718;SDS011;64340;48.534;-3.036;2023-04-25T13:20:08;5.03;;;2.40;;
75718;SDS011;64340;48.534;-3.036;2023-04-25T13:22:35;6.40;;;2.40;;
75718;SDS011;64340;48.534;-3.036;2023-04-25T13:25:05;7.22;;;2.70;;
75718;SDS011;64340;48.534;-3.036;2023-04-25T13:27:32;5.13;;;2.50;;
75718;SDS011;64340;48.534;-3.036;2023-04-25T13:30:00;5.95;;;2.78;;
75718;SDS011;64340;48.534;-3.036;2023-04-25T13:32:32;4.90;;;2.50;;
75718;SDS011;64340;48.534;-3.036;2023-04-25T13:35:04;4.72;;;2.25;;
75718;SDS011;64340;48.534;-3.036;2023-04-25T13:37:31;6.43;;;2.67;;
75718;SDS011;64340;48.534;-3.036;2023-04-25T13:40:05;5.18;;;2.55;;
75718;SDS011;64340;48.534;-3.036;2023-04-25T13:42:34;6.22;;;2.58;;
75718;SDS011;64340;48.534;-3.036;2023-04-25T13:45:00;6.00;;;2.10;;
75718;SDS011;64340;48.534;-3.036;2023-04-25T13:47:29;6.00;;;2.70;;
75718;SDS011;64340;48.534;-3.036;2023-04-25T13:49:55;4.80;;;2.33;;
75718;SDS011;64340;48.534;-3.036;2023-04-25T13:52:22;5.15;;;2.25;;
75718;SDS011;64340;48.534;-3.036;2023-04-25T13:54:49;5.82;;;2.30;;
75718;SDS011;64340;48.534;-3.036;2023-04-25T13:57:16;3.88;;;2.00;;
75718;SDS011;64340;48.534;-3.036;2023-04-25T13:59:42;5.43;;;2.00;;
75718;SDS011;64340;48.534;-3.036;2023-04-25T14:02:08;3.92;;;1.95;;
75718;SDS011;64340;48.534;-3.036;2023-04-25T14:04:34;3.92;;;1.92;;
75718;SDS011;64340;48.534;-3.036;2023-04-25T14:07:00;3.38;;;1.80;;
75718;SDS011;64340;48.534;-3.036;2023-04-25T14:09:28;5.63;;;2.33;;
75718;SDS011;64340;48.534;-3.036;2023-04-25T14:11:54;6.15;;;2.22;;
75718;SDS011;64340;48.534;-3.036;2023-04-25T14:14:21;3.38;;;2.13;;
75718;SDS011;64340;48.534;-3.036;2023-04-25T14:16:48;3.58;;;1.80;;
75718;SDS011;64340;48.534;-3.036;2023-04-25T14:19:15;3.75;;;1.80;;
75718;SDS011;64340;48.534;-3.036;2023-04-25T14:21:41;4.80;;;2.28;;
75718;SDS011;64340;48.534;-3.036;2023-04-25T14:24:08;4.55;;;1.98;;
75718;SDS011;64340;48.534;-3.036;2023-04-25T14:26:34;4.38;;;1.65;;
75718;SDS011;64340;48.534;-3.036;2023-04-25T14:29:03;4.25;;;1.98;;
75718;SDS011;64340;48.534;-3.036;2023-04-25T14:31:30;3.40;;;1.88;;
75718;SDS011;64340;48.534;-3.036;2023-04-25T14:33:56;4.97;;;2.50;;
75718;SDS011;64340;48.534;-3.036;2023-04-25T14:36:22;4.10;;;1.88;;
75718;SDS011;64340;48.534;-3.036;2023-04-25T14:38:48;4.45;;;1.85;;
75718;SDS011;64340;48.534;-3.036;2023-04-25T14:41:13;3.55;;;1.80;;
75718;SDS011;64340;48.534;-3.036;2023-04-25T14:43:39;5.55;;;2.10;;
75718;SDS011;64340;48.534;-3.036;2023-04-25T14:46:06;9.98;;;2.50;;
75718;SDS011;64340;48.534;-3.036;2023-04-25T14:48:32;4.85;;;1.90;;
75718;SDS011;64340;48.534;-3.036;2023-04-25T14:50:59;6.90;;;2.35;;
75718;SDS011;64340;48.534;-3.036;2023-04-25T14:53:25;4.80;;;2.28;;